createdAt,value
2019-06-26T00:01:48.577Z,6.30
2019-06-26T00:04:14.623Z,6.27
2019-06-26T00:06:40.799Z,6.37
2019-06-26T00:09:08.650Z,6.13
2019-06-26T00:11:34.660Z,7.20
2019-06-26T00:14:00.665Z,6.27
2019-06-26T00:16:26.709Z,6.40
2019-06-26T00:18:52.704Z,7.10
2019-06-26T00:21:21.910Z,6.47
2019-06-26T00:23:46.709Z,6.40
2019-06-26T00:26:12.744Z,5.80
2019-06-26T00:28:38.783Z,7.20
2019-06-26T00:31:04.818Z,6.83
2019-06-26T00:33:30.862Z,6.63
2019-06-26T00:35:56.953Z,6.20
2019-06-26T00:38:22.955Z,6.10
2019-06-26T00:40:48.981Z,7.60
2019-06-26T00:46:49.714Z,7.40
2019-06-26T00:49:15.766Z,6.63
2019-06-26T00:51:41.923Z,6.73
2019-06-26T00:54:07.928Z,7.10
2019-06-26T00:56:34.173Z,6.83
2019-06-26T00:59:00.188Z,7.50
2019-06-26T01:01:26.211Z,7.10
2019-06-26T01:03:54.139Z,6.90
2019-06-26T01:06:38.325Z,7.10
2019-06-26T01:09:04.960Z,7.20
2019-06-26T01:11:30.962Z,8.10
2019-06-26T01:13:58.343Z,6.70
2019-06-26T01:16:24.621Z,6.90
2019-06-26T01:18:50.616Z,8.13
2019-06-26T01:21:16.727Z,7.40
2019-06-26T01:23:42.765Z,7.90
2019-06-26T01:26:08.796Z,7.40
2019-06-26T01:28:34.785Z,7.80
2019-06-26T01:31:00.792Z,7.90
2019-06-26T01:33:26.817Z,7.27
2019-06-26T01:35:52.860Z,8.17
2019-06-26T01:38:18.880Z,6.70
2019-06-26T01:40:44.867Z,7.40
2019-06-26T01:43:10.892Z,7.13
2019-06-26T01:45:36.870Z,8.43
2019-06-26T01:48:02.908Z,7.73
2019-06-26T01:50:28.936Z,7.40
2019-06-26T01:52:54.955Z,7.87
2019-06-26T01:55:20.981Z,7.77
2019-06-26T01:57:47.016Z,8.73
2019-06-26T02:00:14.940Z,8.27
2019-06-26T02:02:41.039Z,8.10
2019-06-26T02:05:07.359Z,7.07
2019-06-26T02:07:33.393Z,8.13
2019-06-26T02:09:59.407Z,7.67
2019-06-26T02:12:25.408Z,8.20
2019-06-26T02:14:51.387Z,7.97
2019-06-26T02:17:17.510Z,8.63
2019-06-26T02:19:43.551Z,8.37
2019-06-26T02:22:09.581Z,9.40
2019-06-26T02:24:35.556Z,8.93
2019-06-26T02:27:02.199Z,9.93
2019-06-26T02:29:28.279Z,8.70
2019-06-26T02:31:54.386Z,9.97
2019-06-26T02:34:21.307Z,8.30
2019-06-26T02:39:59.094Z,8.03
2019-06-26T02:42:25.340Z,9.60
2019-06-26T02:44:54.161Z,8.27
2019-06-26T02:47:20.972Z,9.00
2019-06-26T02:49:47.100Z,8.00
2019-06-26T02:52:13.150Z,9.43
2019-06-26T02:54:39.162Z,9.00
2019-06-26T02:57:05.163Z,9.00
2019-06-26T02:59:31.175Z,9.60
2019-06-26T03:01:57.181Z,8.90
2019-06-26T03:04:23.206Z,9.70
2019-06-26T03:06:49.493Z,9.27
2019-06-26T03:09:15.520Z,10.30
2019-06-26T03:11:41.553Z,10.33
2019-06-26T03:14:07.667Z,10.47
2019-06-26T03:16:33.724Z,10.47
2019-06-26T03:19:00.092Z,10.47
2019-06-26T03:21:26.122Z,9.90
2019-06-26T03:23:52.156Z,10.30
2019-06-26T03:26:18.187Z,9.67
2019-06-26T03:28:44.285Z,9.53
2019-06-26T03:31:10.285Z,9.70
2019-06-26T03:33:36.304Z,10.10
2019-06-26T03:36:02.296Z,9.63
2019-06-26T03:38:28.346Z,11.20
2019-06-26T03:40:54.446Z,9.93
2019-06-26T03:43:20.485Z,10.77
2019-06-26T03:45:46.499Z,10.00
2019-06-26T03:48:12.522Z,10.70
2019-06-26T03:50:38.565Z,9.60
2019-06-26T03:53:04.840Z,9.53
2019-06-26T03:55:30.833Z,10.87
2019-06-26T03:57:56.853Z,9.47
2019-06-26T04:00:37.535Z,10.90
2019-06-26T04:03:03.534Z,10.07
2019-06-26T04:05:29.505Z,11.33
2019-06-26T04:07:55.658Z,9.87
2019-06-26T04:10:21.688Z,10.87
2019-06-26T04:12:47.760Z,10.40
2019-06-26T04:15:13.879Z,10.70
2019-06-26T04:17:40.276Z,10.20
2019-06-26T04:20:06.835Z,10.50
2019-06-26T04:22:32.887Z,11.03
2019-06-26T04:24:58.993Z,10.90
2019-06-26T04:27:25.026Z,10.70
2019-06-26T04:29:51.075Z,11.37
2019-06-26T04:32:17.140Z,11.03
2019-06-26T04:34:43.127Z,11.50
2019-06-26T04:37:09.137Z,11.57
2019-06-26T04:39:35.175Z,11.27
2019-06-26T04:42:01.176Z,11.43
2019-06-26T04:44:27.319Z,11.57
2019-06-26T04:46:53.352Z,12.30
2019-06-26T04:49:19.406Z,11.53
2019-06-26T04:51:45.417Z,11.90
2019-06-26T04:54:11.390Z,11.23
2019-06-26T04:56:37.397Z,12.33
2019-06-26T04:59:03.674Z,12.47
2019-06-26T05:01:29.933Z,11.93
2019-06-26T05:03:56.107Z,11.70
2019-06-26T05:06:22.201Z,12.67
2019-06-26T05:08:48.232Z,12.50
2019-06-26T05:11:14.284Z,12.57
2019-06-26T05:13:40.297Z,13.00
2019-06-26T05:16:14.844Z,12.90
2019-06-26T05:18:34.262Z,11.50
2019-06-26T05:21:00.517Z,12.03
2019-06-26T05:26:37.751Z,12.83
2019-06-26T05:29:03.843Z,11.97
2019-06-26T05:31:29.825Z,12.83
2019-06-26T05:33:55.830Z,11.90
2019-06-26T05:36:21.855Z,12.57
2019-06-26T05:38:48.160Z,11.53
2019-06-26T05:41:14.238Z,13.20
2019-06-26T05:43:40.242Z,12.30
2019-06-26T05:46:06.497Z,11.97
2019-06-26T05:48:32.497Z,12.70
2019-06-26T05:50:58.536Z,11.57
2019-06-26T05:56:59.177Z,10.30
2019-06-26T05:59:25.164Z,11.13
2019-06-26T06:01:51.172Z,11.40
2019-06-26T06:04:17.219Z,11.60
2019-06-26T06:06:43.233Z,11.20
2019-06-26T06:09:09.263Z,10.37
2019-06-26T06:11:35.388Z,10.87
2019-06-26T06:14:01.520Z,10.13
2019-06-26T06:16:27.627Z,10.40
2019-06-26T06:18:53.752Z,9.77
2019-06-26T06:21:19.729Z,10.90
2019-06-26T06:23:45.750Z,10.10
2019-06-26T06:26:11.748Z,11.13
2019-06-26T06:28:37.774Z,10.07
2019-06-26T06:31:03.784Z,10.20
2019-06-26T06:33:29.747Z,10.67
2019-06-26T06:35:55.907Z,10.90
2019-06-26T06:38:21.972Z,9.37
2019-06-26T06:40:48.038Z,9.90
2019-06-26T06:43:14.075Z,10.23
2019-06-26T06:45:40.108Z,9.40
2019-06-26T06:48:06.296Z,9.47
2019-06-26T06:50:32.330Z,10.00
2019-06-26T06:53:05.366Z,9.90
2019-06-26T06:55:31.627Z,9.87
2019-06-26T06:57:57.651Z,8.80
2019-06-26T07:00:23.750Z,9.57
2019-06-26T07:02:49.784Z,10.50
2019-06-26T07:05:15.920Z,10.10
2019-06-26T07:07:42.071Z,9.60
2019-06-26T07:10:10.108Z,9.47
2019-06-26T07:12:36.113Z,9.60
2019-06-26T07:15:08.164Z,10.10
2019-06-26T07:17:34.303Z,9.20
2019-06-26T07:20:00.679Z,9.27
2019-06-26T07:22:26.673Z,9.70
2019-06-26T07:24:52.687Z,8.83
2019-06-26T07:27:18.773Z,9.90
2019-06-26T07:29:44.767Z,10.47
2019-06-26T07:32:10.876Z,9.60
2019-06-26T07:34:36.845Z,9.50
2019-06-26T07:37:02.868Z,9.47
2019-06-26T07:39:28.898Z,7.70
2019-06-26T07:41:54.898Z,8.30
2019-06-26T07:44:21.127Z,7.73
2019-06-26T07:46:47.144Z,8.07
2019-06-26T07:49:13.110Z,8.93
2019-06-26T07:51:39.194Z,7.83
2019-06-26T07:54:05.337Z,7.60
2019-06-26T07:56:31.376Z,9.27
2019-06-26T07:58:57.425Z,8.10
2019-06-26T08:01:23.455Z,8.40
2019-06-26T08:03:49.551Z,8.43
2019-06-26T08:06:15.522Z,7.93
2019-06-26T08:08:41.605Z,8.13
2019-06-26T08:11:07.634Z,8.77
2019-06-26T08:13:33.622Z,8.50
2019-06-26T08:15:59.649Z,7.43
2019-06-26T08:18:25.644Z,7.57
2019-06-26T08:21:10.645Z,7.80
2019-06-26T08:23:19.631Z,7.80
2019-06-26T08:25:45.720Z,7.37
2019-06-26T08:28:11.983Z,7.70
2019-06-26T08:30:37.966Z,7.90
2019-06-26T08:33:04.074Z,7.50
2019-06-26T08:35:30.072Z,7.20
2019-06-26T08:38:09.786Z,8.07
2019-06-26T08:40:23.972Z,7.80
2019-06-26T08:42:50.022Z,7.37
2019-06-26T08:45:16.827Z,7.90
2019-06-26T08:47:42.872Z,7.27
2019-06-26T08:50:09.880Z,7.17
2019-06-26T08:52:36.088Z,8.87
2019-06-26T08:55:04.979Z,8.43
2019-06-26T08:57:31.025Z,8.10
2019-06-26T08:59:57.002Z,8.30
2019-06-26T09:02:23.296Z,7.00
2019-06-26T09:04:49.363Z,7.83
2019-06-26T09:07:15.344Z,8.20
2019-06-26T09:09:41.635Z,7.63
2019-06-26T09:12:07.642Z,7.90
2019-06-26T09:14:33.674Z,9.10
2019-06-26T09:16:59.656Z,8.20
2019-06-26T09:19:25.637Z,9.00
2019-06-26T09:21:51.667Z,9.90
2019-06-26T09:24:17.659Z,9.43
2019-06-26T09:26:43.695Z,9.90
2019-06-26T09:29:09.667Z,8.90
2019-06-26T09:31:35.688Z,9.40
2019-06-26T09:34:01.723Z,9.83
2019-06-26T09:36:27.756Z,10.33
2019-06-26T09:38:57.692Z,8.60
2019-06-26T09:41:21.711Z,9.70
2019-06-26T09:43:47.706Z,9.83
2019-06-26T09:46:13.695Z,9.30
2019-06-26T09:48:52.282Z,9.00
2019-06-26T09:51:07.632Z,9.87
2019-06-26T09:53:46.668Z,8.97
2019-06-26T09:56:01.833Z,9.20
2019-06-26T09:58:27.831Z,8.40
2019-06-26T10:00:53.838Z,9.83
2019-06-26T10:03:19.836Z,8.63
2019-06-26T10:05:45.854Z,8.73
2019-06-26T10:08:11.871Z,8.20
2019-06-26T10:10:37.960Z,8.90
2019-06-26T10:13:04.082Z,8.97
2019-06-26T10:15:30.090Z,9.00
2019-06-26T10:17:56.184Z,8.87
2019-06-26T10:20:22.563Z,9.20
2019-06-26T10:22:48.582Z,8.43
2019-06-26T10:25:14.764Z,8.97
2019-06-26T10:27:41.112Z,8.67
2019-06-26T10:30:07.876Z,9.40
2019-06-26T10:32:34.027Z,8.07
2019-06-26T10:35:00.162Z,7.90
2019-06-26T10:37:26.227Z,8.43
2019-06-26T10:39:52.341Z,9.00
2019-06-26T10:42:18.643Z,8.17
2019-06-26T10:44:44.672Z,8.10
2019-06-26T10:47:10.814Z,8.70
2019-06-26T10:49:36.905Z,8.50
2019-06-26T10:52:03.093Z,9.47
2019-06-26T10:54:29.138Z,9.73
2019-06-26T10:56:55.195Z,8.60
2019-06-26T10:59:21.208Z,9.23
2019-06-26T11:01:47.757Z,10.10
2019-06-26T11:04:13.905Z,10.00
2019-06-26T11:06:39.897Z,10.53
2019-06-26T11:09:06.792Z,10.00
2019-06-26T11:11:32.807Z,10.03
2019-06-26T11:13:58.788Z,10.20
2019-06-26T11:16:24.796Z,9.77
2019-06-26T11:18:50.802Z,9.90
2019-06-26T11:21:17.041Z,8.50
2019-06-26T11:23:43.099Z,7.77
2019-06-26T11:26:09.118Z,7.80
2019-06-26T11:28:35.216Z,8.17
2019-06-26T11:31:01.203Z,8.67
2019-06-26T11:33:27.520Z,8.63
2019-06-26T11:35:53.601Z,9.70
2019-06-26T11:38:19.711Z,10.67
2019-06-26T11:40:45.757Z,9.00
2019-06-26T11:43:11.839Z,10.00
2019-06-26T11:45:37.985Z,10.03
2019-06-26T11:48:04.149Z,10.67
2019-06-26T11:50:30.144Z,11.10
2019-06-26T11:52:56.319Z,9.67
2019-06-26T11:55:22.354Z,10.43
2019-06-26T11:57:48.379Z,11.03
2019-06-26T12:00:16.908Z,11.00
2019-06-26T12:02:42.934Z,12.27
2019-06-26T12:05:10.462Z,10.77
2019-06-26T12:07:37.143Z,13.53
2019-06-26T12:10:05.090Z,14.80
2019-06-26T12:12:31.233Z,14.53
2019-06-26T12:14:57.393Z,13.10
2019-06-26T12:17:23.415Z,11.93
2019-06-26T12:19:49.483Z,14.23
2019-06-26T12:22:15.621Z,13.57
2019-06-26T12:24:41.778Z,14.10
2019-06-26T12:27:07.774Z,13.20
2019-06-26T12:29:33.906Z,12.30
2019-06-26T12:31:59.948Z,11.57
2019-06-26T12:34:26.248Z,13.37
2019-06-26T12:36:52.406Z,12.57
2019-06-26T12:39:18.568Z,13.20
2019-06-26T12:41:44.772Z,12.30
2019-06-26T12:44:10.801Z,12.90
2019-06-26T12:46:36.961Z,13.23
2019-06-26T12:49:03.085Z,14.00
2019-06-26T12:51:29.091Z,12.07
2019-06-26T12:53:58.340Z,11.60
2019-06-26T12:56:23.035Z,9.80
2019-06-26T12:58:49.142Z,11.03
2019-06-26T13:01:15.133Z,9.53
2019-06-26T13:03:41.147Z,9.93
2019-06-26T13:06:07.154Z,8.77
2019-06-26T13:08:33.483Z,9.10
2019-06-26T13:10:59.504Z,8.43
2019-06-26T13:13:25.542Z,6.97
2019-06-26T13:15:51.536Z,7.13
2019-06-26T13:18:17.530Z,7.17
2019-06-26T13:20:52.927Z,7.67
2019-06-26T13:23:14.684Z,7.60
2019-06-26T13:25:39.485Z,7.60
2019-06-26T13:28:05.487Z,7.30
2019-06-26T13:30:35.319Z,7.17
2019-06-26T13:33:01.343Z,6.37
2019-06-26T13:35:27.405Z,6.50
2019-06-26T13:37:54.866Z,6.23
2019-06-26T13:40:21.725Z,6.37
2019-06-26T13:42:47.879Z,5.60
2019-06-26T13:45:14.468Z,6.43
2019-06-26T13:47:40.435Z,6.30
2019-06-26T13:50:07.055Z,5.80
2019-06-26T13:52:33.148Z,5.80
2019-06-26T13:54:59.131Z,6.00
2019-06-26T13:57:25.179Z,6.33
2019-06-26T13:59:51.268Z,7.73
2019-06-26T14:02:19.883Z,10.30
2019-06-26T14:04:45.188Z,20.90
2019-06-26T14:07:11.233Z,9.47
2019-06-26T14:09:37.307Z,7.67
2019-06-26T14:12:03.346Z,14.20
2019-06-26T14:14:41.100Z,7.90
2019-06-26T14:16:57.339Z,9.70
2019-06-26T14:19:26.661Z,6.37
2019-06-26T14:21:51.289Z,9.40
2019-06-26T14:24:17.337Z,6.77
2019-06-26T14:26:43.420Z,7.23
2019-06-26T14:29:20.498Z,6.90
2019-06-26T14:31:37.354Z,5.13
2019-06-26T14:34:03.356Z,6.77
2019-06-26T14:36:29.632Z,5.90
2019-06-26T14:38:55.672Z,5.83
2019-06-26T14:41:21.675Z,6.67
2019-06-26T14:43:47.679Z,5.53
2019-06-26T14:46:13.997Z,6.70
2019-06-26T14:48:40.024Z,5.47
2019-06-26T14:51:06.020Z,5.60
2019-06-26T14:53:32.168Z,6.10
2019-06-26T14:55:58.161Z,6.03
2019-06-26T14:58:24.191Z,5.80
2019-06-26T15:00:50.190Z,5.57
2019-06-26T15:03:16.388Z,5.27
2019-06-26T15:05:42.472Z,5.93
2019-06-26T15:08:08.482Z,6.50
2019-06-26T15:10:34.825Z,6.27
2019-06-26T15:13:00.843Z,6.10
2019-06-26T15:15:26.817Z,5.10
2019-06-26T15:17:52.792Z,5.00
2019-06-26T15:20:18.891Z,4.87
2019-06-26T15:22:44.916Z,5.30
2019-06-26T15:25:11.155Z,5.30
2019-06-26T15:27:37.156Z,4.60
2019-06-26T15:30:07.939Z,4.53
2019-06-26T15:32:34.041Z,4.20
2019-06-26T15:35:00.528Z,4.40
2019-06-26T15:37:26.926Z,4.67
2019-06-26T15:39:52.965Z,4.10
2019-06-26T15:42:19.005Z,4.70
2019-06-26T15:44:45.111Z,4.80
2019-06-26T15:47:11.171Z,4.20
2019-06-26T15:49:37.165Z,4.53
2019-06-26T15:52:14.379Z,5.10
2019-06-26T15:54:31.218Z,3.63
2019-06-26T15:56:57.289Z,3.50
2019-06-26T15:59:23.279Z,3.67
2019-06-26T16:01:49.421Z,3.20
2019-06-26T16:04:15.596Z,3.60
2019-06-26T16:06:41.660Z,3.53
2019-06-26T16:09:07.744Z,4.10
2019-06-26T16:11:33.765Z,3.53
2019-06-26T16:13:59.863Z,4.73
2019-06-26T16:16:26.184Z,4.20
2019-06-26T16:19:12.986Z,4.60
2019-06-26T16:21:39.005Z,4.73
2019-06-26T16:24:05.033Z,3.60
2019-06-26T16:26:31.059Z,3.63
2019-06-26T16:28:57.061Z,3.90
2019-06-26T16:31:23.151Z,4.20
2019-06-26T16:33:49.184Z,3.60
2019-06-26T16:36:15.207Z,4.47
2019-06-26T16:38:41.241Z,4.90
2019-06-26T16:41:07.276Z,4.00
2019-06-26T16:43:33.403Z,3.87
2019-06-26T16:45:59.394Z,3.07
2019-06-26T16:48:25.493Z,3.70
2019-06-26T16:50:51.626Z,3.60
2019-06-26T16:53:17.620Z,3.20
2019-06-26T16:55:43.651Z,4.03
2019-06-26T16:58:09.647Z,3.90
2019-06-26T17:00:35.706Z,4.03
2019-06-26T17:03:03.977Z,4.40
2019-06-26T17:05:30.260Z,3.80
2019-06-26T17:07:56.386Z,4.00
2019-06-26T17:10:22.704Z,5.07
2019-06-26T17:12:48.793Z,4.90
2019-06-26T17:15:15.966Z,4.53
2019-06-26T17:17:41.974Z,5.43
2019-06-26T17:20:08.388Z,4.80
2019-06-26T17:22:34.470Z,4.97
2019-06-26T17:25:00.721Z,5.40
2019-06-26T17:27:27.127Z,5.70
2019-06-26T17:29:53.484Z,5.73
2019-06-26T17:32:19.645Z,6.10
2019-06-26T17:34:45.732Z,6.20
2019-06-26T17:37:11.816Z,6.07
2019-06-26T17:39:37.903Z,6.90
2019-06-26T17:42:03.999Z,6.67
2019-06-26T17:44:30.081Z,11.57
2019-06-26T17:46:56.154Z,10.00
2019-06-26T17:49:22.185Z,11.50
2019-06-26T17:51:48.204Z,13.87
2019-06-26T17:54:14.326Z,12.10
2019-06-26T17:56:40.389Z,14.23
2019-06-26T17:59:06.408Z,10.67
2019-06-26T18:01:32.565Z,8.13
2019-06-26T18:03:58.602Z,8.80
2019-06-26T18:06:25.110Z,8.27
2019-06-26T18:08:51.465Z,8.67
2019-06-26T18:11:17.536Z,7.97
2019-06-26T18:13:43.563Z,8.83
2019-06-26T18:16:09.860Z,7.10
2019-06-26T18:18:35.922Z,9.20
2019-06-26T18:21:01.952Z,9.97
2019-06-26T18:23:37.076Z,8.50
2019-06-26T18:26:11.826Z,8.03
2019-06-26T18:28:24.156Z,8.33
2019-06-26T18:30:50.188Z,7.70
2019-06-26T18:33:16.286Z,9.03
2019-06-26T18:35:42.552Z,7.60
2019-06-26T18:38:08.543Z,7.50
2019-06-26T18:40:34.577Z,8.13
2019-06-26T18:43:00.580Z,7.83
2019-06-26T18:45:26.591Z,7.80
2019-06-26T18:47:52.714Z,7.30
2019-06-26T18:50:18.795Z,6.50
2019-06-26T18:52:44.795Z,7.10
2019-06-26T18:55:11.147Z,6.37
2019-06-26T18:57:37.389Z,6.33
2019-06-26T19:00:05.094Z,6.10
2019-06-26T19:02:31.234Z,6.93
2019-06-26T19:04:57.345Z,5.97
2019-06-26T19:07:23.389Z,5.20
2019-06-26T19:09:49.397Z,5.57
2019-06-26T19:12:15.472Z,4.73
2019-06-26T19:14:41.495Z,4.73
2019-06-26T19:17:07.503Z,4.57
2019-06-26T19:19:33.561Z,5.10
2019-06-26T19:21:59.596Z,4.87
2019-06-26T19:24:25.644Z,4.03
2019-06-26T19:26:51.679Z,3.53
2019-06-26T19:29:17.668Z,3.87
2019-06-26T19:31:43.816Z,3.80
2019-06-26T19:34:09.877Z,3.63
2019-06-26T19:36:48.991Z,3.70
2019-06-26T19:39:04.891Z,3.20
2019-06-26T19:41:30.906Z,3.67
2019-06-26T19:43:57.032Z,4.63
2019-06-26T19:46:23.098Z,4.83
2019-06-26T19:48:49.244Z,4.77
2019-06-26T19:51:15.257Z,3.80
2019-06-26T19:53:45.145Z,3.73
2019-06-26T19:56:11.453Z,3.63
2019-06-26T19:58:39.764Z,4.17
2019-06-26T20:01:07.326Z,3.83
2019-06-26T20:03:33.328Z,3.93
2019-06-26T20:05:59.692Z,4.07
2019-06-26T20:08:26.066Z,4.33
2019-06-26T20:10:52.083Z,4.03
2019-06-26T20:13:18.153Z,4.00
2019-06-26T20:15:44.175Z,4.00
2019-06-26T20:18:10.182Z,5.03
2019-06-26T20:20:36.510Z,4.60
2019-06-26T20:23:02.880Z,4.27
2019-06-26T20:25:29.020Z,4.37
2019-06-26T20:27:57.109Z,4.90
2019-06-26T20:30:29.342Z,4.40
2019-06-26T20:32:55.355Z,4.10
2019-06-26T20:35:21.596Z,5.10
2019-06-26T20:37:47.632Z,5.13
2019-06-26T20:40:19.255Z,5.00
2019-06-26T20:42:45.353Z,5.67
2019-06-26T20:45:12.066Z,5.17
2019-06-26T20:47:38.213Z,5.60
2019-06-26T20:50:05.135Z,5.50
2019-06-26T20:52:31.126Z,5.47
2019-06-26T20:55:02.011Z,5.67
2019-06-26T20:57:25.030Z,5.23
2019-06-26T20:59:51.071Z,5.63
2019-06-26T21:02:17.195Z,5.30
2019-06-26T21:04:43.191Z,5.50
2019-06-26T21:07:09.246Z,5.07
2019-06-26T21:09:35.307Z,4.90
2019-06-26T21:12:01.443Z,5.17
2019-06-26T21:14:27.602Z,4.50
2019-06-26T21:16:53.852Z,4.53
2019-06-26T21:19:19.895Z,4.33
2019-06-26T21:21:46.389Z,4.70
2019-06-26T21:24:12.752Z,4.57
2019-06-26T21:26:38.982Z,4.10
2019-06-26T21:29:13.799Z,4.50
2019-06-26T21:31:49.526Z,3.50
2019-06-26T21:34:15.544Z,3.97
2019-06-26T21:36:41.572Z,3.90
2019-06-26T21:39:07.737Z,4.20
2019-06-26T21:41:33.731Z,3.70
2019-06-26T21:43:59.853Z,3.37
2019-06-26T21:46:25.995Z,5.07
2019-06-26T21:48:52.004Z,4.20
2019-06-26T21:51:18.076Z,3.60
2019-06-26T21:53:44.314Z,4.13
2019-06-26T21:56:10.317Z,3.40
2019-06-26T21:58:36.348Z,3.20
2019-06-26T22:01:02.673Z,4.30
2019-06-26T22:03:29.055Z,3.80
2019-06-26T22:05:55.093Z,3.80
2019-06-26T22:08:21.073Z,3.60
2019-06-26T22:10:47.049Z,3.47
2019-06-26T22:13:13.166Z,3.37
2019-06-26T22:15:39.249Z,4.70
2019-06-26T22:18:05.264Z,3.70
2019-06-26T22:20:31.416Z,3.87
2019-06-26T22:22:57.544Z,4.40
2019-06-26T22:25:23.751Z,3.60
2019-06-26T22:27:49.876Z,3.30
2019-06-26T22:30:16.459Z,3.17
2019-06-26T22:32:42.634Z,2.97
2019-06-26T22:35:11.125Z,3.53
2019-06-26T22:37:37.342Z,3.30
2019-06-26T22:40:04.404Z,3.67
2019-06-26T22:42:30.547Z,3.03
2019-06-26T22:44:56.600Z,3.63
2019-06-26T22:47:22.596Z,3.70
2019-06-26T22:49:48.633Z,3.60
2019-06-26T22:52:14.624Z,3.20
2019-06-26T22:54:40.727Z,3.67
2019-06-26T22:57:06.998Z,5.87
2019-06-26T22:59:33.051Z,8.03
2019-06-26T23:01:59.326Z,8.77
2019-06-26T23:04:25.428Z,7.90
2019-06-26T23:06:51.594Z,7.20
2019-06-26T23:09:17.648Z,9.07
2019-06-26T23:11:43.660Z,5.30
2019-06-26T23:14:09.770Z,3.60
2019-06-26T23:16:35.920Z,4.33
2019-06-26T23:19:01.917Z,3.87
2019-06-26T23:21:27.959Z,4.57
2019-06-26T23:23:53.992Z,5.07
2019-06-26T23:26:24.078Z,3.43
2019-06-26T23:28:47.951Z,3.53
2019-06-26T23:31:13.989Z,3.93
2019-06-26T23:33:39.978Z,3.80
2019-06-26T23:36:05.994Z,3.97
2019-06-26T23:38:31.996Z,3.20
2019-06-26T23:40:58.020Z,3.93
2019-06-26T23:43:24.044Z,3.47
2019-06-26T23:45:50.079Z,45.80
2019-06-26T23:48:16.096Z,5.33
2019-06-26T23:50:42.337Z,4.40
2019-06-26T23:53:08.323Z,4.50
2019-06-26T23:55:34.332Z,4.07
2019-06-26T23:58:00.341Z,3.97
